createdAt,value
2023-02-27T00:00:35.871Z,94250.28
2023-02-27T00:03:02.464Z,94239.16
2023-02-27T00:05:29.125Z,94248.28
2023-02-27T00:07:55.693Z,94244.63
2023-02-27T00:10:22.221Z,94255.03
2023-02-27T00:12:48.901Z,94248.50
2023-02-27T00:15:20.253Z,94248.00
2023-02-27T00:17:48.224Z,94242.09
2023-02-27T00:20:16.749Z,94237.16
2023-02-27T00:22:43.663Z,94246.03
2023-02-27T00:25:11.515Z,94236.91
2023-02-27T00:27:38.416Z,94257.56
2023-02-27T00:30:08.120Z,94250.78
2023-02-27T00:32:36.605Z,94256.78
2023-02-27T00:35:08.854Z,94246.59
2023-02-27T00:37:35.823Z,94256.53
2023-02-27T00:40:04.835Z,94248.53
2023-02-27T00:42:32.208Z,94268.13
2023-02-27T00:44:58.815Z,94260.88
2023-02-27T00:47:25.421Z,94264.06
2023-02-27T00:49:53.151Z,94266.19
2023-02-27T00:52:19.702Z,94261.59
2023-02-27T00:54:46.270Z,94263.56
2023-02-27T00:57:13.172Z,94269.88
2023-02-27T00:59:41.067Z,94250.13
2023-02-27T01:02:07.632Z,94254.25
2023-02-27T01:04:34.243Z,94256.16
2023-02-27T01:07:00.908Z,94255.53
2023-02-27T01:09:27.495Z,94255.63
2023-02-27T01:11:54.035Z,94261.38
2023-02-27T01:14:21.310Z,94256.22
2023-02-27T01:16:49.175Z,94243.63
2023-02-27T01:19:15.961Z,94246.19
2023-02-27T01:21:43.599Z,94252.13
2023-02-27T01:24:11.213Z,94244.38
2023-02-27T01:26:37.830Z,94261.75
2023-02-27T01:29:06.416Z,94247.03
2023-02-27T01:31:33.523Z,94270.31
2023-02-27T01:34:00.131Z,94242.59
2023-02-27T01:36:27.172Z,94250.00
2023-02-27T01:38:53.733Z,94244.78
2023-02-27T01:41:21.138Z,94250.44
2023-02-27T01:44:03.855Z,94248.38
2023-02-27T01:46:32.068Z,94259.06
2023-02-27T01:49:05.176Z,94246.41
2023-02-27T01:51:36.620Z,94239.13
2023-02-27T01:54:05.184Z,94255.47
2023-02-27T01:56:32.330Z,94243.72
2023-02-27T01:59:06.467Z,94247.28
2023-02-27T02:01:34.477Z,94248.31
2023-02-27T02:04:05.803Z,94230.50
2023-02-27T02:06:36.404Z,94257.75
2023-02-27T02:09:04.070Z,94245.38
2023-02-27T02:11:30.785Z,94242.25
2023-02-27T02:13:59.879Z,94240.47
2023-02-27T02:17:04.731Z,94245.88
2023-02-27T02:19:46.602Z,94254.19
2023-02-27T02:22:16.062Z,94253.38
2023-02-27T02:25:15.199Z,94259.28
2023-02-27T02:28:27.177Z,94245.47
2023-02-27T02:31:22.020Z,94245.16
2023-02-27T02:34:19.551Z,94240.69
2023-02-27T02:37:00.131Z,94255.63
2023-02-27T02:39:54.626Z,94247.75
2023-02-27T02:42:38.684Z,94253.75
2023-02-27T02:45:17.238Z,94236.25
2023-02-27T02:48:02.477Z,94259.59
2023-02-27T02:50:51.079Z,94248.00
2023-02-27T02:54:01.329Z,94232.34
2023-02-27T02:56:40.371Z,94242.69
2023-02-27T02:59:18.087Z,94241.41
2023-02-27T03:01:59.505Z,94240.72
2023-02-27T03:04:41.629Z,94241.47
2023-02-27T03:07:24.107Z,94232.97
2023-02-27T03:09:57.467Z,94236.91
2023-02-27T03:12:26.249Z,94240.41
2023-02-27T03:15:01.346Z,94235.13
2023-02-27T03:17:39.187Z,94239.69
2023-02-27T03:20:16.090Z,94245.22
2023-02-27T03:22:47.246Z,94238.09
2023-02-27T03:25:15.061Z,94249.28
2023-02-27T03:28:01.030Z,94236.63
2023-02-27T03:30:36.059Z,94244.56
2023-02-27T03:33:10.004Z,94251.47
2023-02-27T03:35:54.038Z,94240.69
2023-02-27T03:38:33.969Z,94250.56
2023-02-27T03:41:09.520Z,94240.66
2023-02-27T03:44:00.504Z,94247.38
2023-02-27T03:46:28.074Z,94258.47
2023-02-27T03:48:55.113Z,94254.22
2023-02-27T03:51:24.483Z,94261.25
2023-02-27T03:53:59.584Z,94249.47
2023-02-27T03:56:32.521Z,94273.91
2023-02-27T03:58:59.550Z,94268.38
2023-02-27T04:01:26.817Z,94262.44
2023-02-27T04:04:05.729Z,94272.16
2023-02-27T04:07:24.995Z,94268.78
2023-02-27T04:10:19.348Z,94268.00
2023-02-27T04:13:03.340Z,94277.69
2023-02-27T04:16:03.730Z,94264.25
2023-02-27T04:18:38.962Z,94271.97
2023-02-27T04:21:34.869Z,94273.75
2023-02-27T04:24:36.146Z,94283.25
2023-02-27T04:27:10.281Z,94296.88
2023-02-27T04:29:48.609Z,94275.53
2023-02-27T04:32:39.870Z,94276.53
2023-02-27T04:35:13.175Z,94290.25
2023-02-27T04:37:50.039Z,94284.25
2023-02-27T04:40:21.024Z,94281.78
2023-02-27T04:42:54.918Z,94293.72
2023-02-27T04:45:24.280Z,94289.97
2023-02-27T04:48:04.571Z,94292.56
2023-02-27T04:50:41.902Z,94298.19
2023-02-27T04:53:21.735Z,94296.97
2023-02-27T04:55:53.757Z,94284.69
2023-02-27T04:58:26.662Z,94291.69
2023-02-27T05:01:02.724Z,94287.34
2023-02-27T05:03:34.226Z,94281.84
2023-02-27T05:06:02.080Z,94294.09
2023-02-27T05:08:34.953Z,94300.72
2023-02-27T05:11:09.238Z,94297.22
2023-02-27T05:13:46.416Z,94305.84
2023-02-27T05:16:29.271Z,94284.69
2023-02-27T05:18:56.470Z,94293.13
2023-02-27T05:21:32.118Z,94305.97
2023-02-27T05:24:19.851Z,94291.56
2023-02-27T05:26:53.982Z,94295.22
2023-02-27T05:29:42.512Z,94303.03
2023-02-27T05:32:17.841Z,94300.75
2023-02-27T05:34:51.898Z,94300.47
2023-02-27T05:37:25.052Z,94297.88
2023-02-27T05:39:53.055Z,94297.28
2023-02-27T05:42:28.677Z,94306.09
2023-02-27T05:45:01.806Z,94298.38
2023-02-27T05:47:34.262Z,94303.72
2023-02-27T05:50:16.053Z,94306.56
2023-02-27T05:52:44.623Z,94298.78
2023-02-27T05:55:18.881Z,94311.50
2023-02-27T05:58:07.190Z,94321.78
2023-02-27T06:00:40.066Z,94321.91
2023-02-27T06:03:06.886Z,94308.75
2023-02-27T06:05:33.588Z,94325.13
2023-02-27T06:08:00.821Z,94321.22
2023-02-27T06:10:27.448Z,94324.66
2023-02-27T06:12:54.001Z,94318.31
2023-02-27T06:15:20.565Z,94311.00
2023-02-27T06:17:47.128Z,94320.19
2023-02-27T06:20:13.968Z,94330.66
2023-02-27T06:22:40.541Z,94325.13
2023-02-27T06:25:07.324Z,94321.47
2023-02-27T06:27:33.926Z,94313.38
2023-02-27T06:30:00.676Z,94328.31
2023-02-27T06:32:28.015Z,94336.88
2023-02-27T06:34:54.736Z,94335.91
2023-02-27T06:37:22.298Z,94323.94
2023-02-27T06:39:48.837Z,94332.47
2023-02-27T06:42:15.417Z,94340.88
2023-02-27T06:44:41.943Z,94369.34
2023-02-27T06:47:08.556Z,94361.50
2023-02-27T06:49:35.080Z,94346.63
2023-02-27T06:52:01.684Z,94356.31
2023-02-27T06:54:28.182Z,94348.34
2023-02-27T06:56:54.702Z,94348.22
2023-02-27T06:59:21.265Z,94353.69
2023-02-27T07:01:48.399Z,94351.81
2023-02-27T07:04:15.814Z,94359.28
2023-02-27T07:07:34.046Z,94349.91
2023-02-27T07:09:29.242Z,94365.44
2023-02-27T07:11:55.858Z,94363.75
2023-02-27T07:14:22.560Z,94375.53
2023-02-27T07:16:51.049Z,94364.44
2023-02-27T07:19:18.579Z,94368.50
2023-02-27T07:21:45.133Z,94369.69
2023-02-27T07:24:11.660Z,94361.19
2023-02-27T07:26:38.282Z,94371.66
2023-02-27T07:29:05.797Z,94370.56
2023-02-27T07:31:32.743Z,94368.72
2023-02-27T07:33:59.708Z,94361.09
2023-02-27T07:36:26.634Z,94372.47
2023-02-27T07:38:53.441Z,94376.63
2023-02-27T07:41:29.900Z,94372.94
2023-02-27T07:44:00.246Z,94374.03
2023-02-27T07:46:27.774Z,94382.34
2023-02-27T07:48:54.947Z,94381.25
2023-02-27T07:51:21.767Z,94377.06
2023-02-27T07:53:48.291Z,94389.88
2023-02-27T07:56:15.088Z,94393.75
2023-02-27T07:58:41.629Z,94379.09
2023-02-27T08:01:08.168Z,94389.78
2023-02-27T08:03:34.753Z,94395.72
2023-02-27T08:06:02.458Z,94399.09
2023-02-27T08:08:29.717Z,94393.72
2023-02-27T08:10:56.351Z,94387.00
2023-02-27T08:13:42.227Z,94399.66
2023-02-27T08:16:09.673Z,94390.09
2023-02-27T08:18:36.376Z,94405.50
2023-02-27T08:21:05.042Z,94408.50
2023-02-27T08:23:32.617Z,94411.44
2023-02-27T08:25:59.152Z,94417.91
2023-02-27T08:28:25.988Z,94393.56
2023-02-27T08:30:52.532Z,94409.78
2023-02-27T08:33:19.162Z,94406.00
2023-02-27T08:35:45.859Z,94422.22
2023-02-27T08:38:12.502Z,94420.19
2023-02-27T08:40:39.029Z,94411.06
2023-02-27T08:43:05.594Z,94418.88
2023-02-27T08:45:32.352Z,94395.94
2023-02-27T08:47:58.985Z,94418.56
2023-02-27T08:50:25.515Z,94407.88
2023-02-27T08:52:52.874Z,94415.28
2023-02-27T08:55:19.947Z,94429.78
2023-02-27T08:57:46.474Z,94431.41
2023-02-27T09:00:14.712Z,94432.47
2023-02-27T09:02:41.800Z,94422.41
2023-02-27T09:05:08.755Z,94419.06
2023-02-27T09:07:35.291Z,94411.78
2023-02-27T09:10:01.932Z,94417.53
2023-02-27T09:12:28.499Z,94425.25
2023-02-27T09:14:55.104Z,94418.03
2023-02-27T09:17:21.684Z,94411.72
2023-02-27T09:19:48.859Z,94411.47
2023-02-27T09:22:15.402Z,94426.72
2023-02-27T09:24:41.968Z,94434.53
2023-02-27T09:27:08.595Z,94435.03
2023-02-27T09:29:35.125Z,94418.94
2023-02-27T09:32:01.889Z,94423.03
2023-02-27T09:34:29.595Z,94435.13
2023-02-27T09:36:59.668Z,94430.16
2023-02-27T09:39:26.493Z,94422.06
2023-02-27T09:41:58.254Z,94451.72
2023-02-27T09:44:45.681Z,94442.44
2023-02-27T09:47:39.669Z,94435.97
2023-02-27T09:50:06.328Z,94444.53
2023-02-27T09:52:36.353Z,94442.28
2023-02-27T09:55:06.455Z,94439.88
2023-02-27T09:57:58.091Z,94476.66
2023-02-27T10:00:51.505Z,94467.88
2023-02-27T10:03:43.559Z,94445.94
2023-02-27T10:06:21.171Z,94466.31
2023-02-27T10:08:55.392Z,94455.94
2023-02-27T10:11:34.786Z,94483.47
2023-02-27T10:14:15.836Z,94460.69
2023-02-27T10:16:43.327Z,94470.97
2023-02-27T10:19:27.019Z,94446.63
2023-02-27T10:21:56.631Z,94463.81
2023-02-27T10:24:31.825Z,94469.19
2023-02-27T10:27:02.390Z,94447.88
2023-02-27T10:29:31.624Z,94463.69
2023-02-27T10:32:21.968Z,94458.78
2023-02-27T10:35:17.379Z,94470.31
2023-02-27T10:37:50.082Z,94461.56
2023-02-27T10:40:17.905Z,94478.91
2023-02-27T10:42:44.940Z,94463.78
2023-02-27T10:45:16.663Z,94473.16
2023-02-27T10:47:44.924Z,94477.72
2023-02-27T10:50:26.192Z,94461.63
2023-02-27T10:52:58.305Z,94474.91
2023-02-27T10:55:31.362Z,94501.91
2023-02-27T10:57:59.409Z,94473.28
2023-02-27T11:00:43.956Z,94468.56
2023-02-27T11:03:41.538Z,94475.63
2023-02-27T11:06:27.788Z,94478.09
2023-02-27T11:09:33.313Z,94478.28
2023-02-27T11:12:23.857Z,94480.78
2023-02-27T11:15:20.800Z,94485.72
2023-02-27T11:17:47.569Z,94475.81
2023-02-27T11:20:36.093Z,94484.81
2023-02-27T11:23:25.856Z,94484.47
2023-02-27T11:26:10.774Z,94471.34
2023-02-27T11:28:37.318Z,94467.69
2023-02-27T11:31:16.508Z,94460.72
2023-02-27T11:33:58.892Z,94488.22
2023-02-27T11:36:40.741Z,94471.63
2023-02-27T11:39:07.482Z,94469.63
2023-02-27T11:41:34.696Z,94460.34
2023-02-27T11:44:03.356Z,94465.13
2023-02-27T11:46:47.694Z,94484.94
2023-02-27T11:49:17.804Z,94464.19
2023-02-27T11:51:59.663Z,94478.47
2023-02-27T11:54:40.301Z,94465.78
2023-02-27T11:57:29.749Z,94465.84
2023-02-27T12:00:16.385Z,94465.91
2023-02-27T12:02:55.324Z,94468.63
2023-02-27T12:05:46.582Z,94474.47
2023-02-27T12:08:32.295Z,94483.91
2023-02-27T12:11:13.587Z,94474.63
2023-02-27T12:13:49.259Z,94484.75
2023-02-27T12:16:40.230Z,94488.25
2023-02-27T12:19:21.340Z,94490.28
2023-02-27T12:21:53.801Z,94479.25
2023-02-27T12:24:28.990Z,94477.34
2023-02-27T12:27:37.036Z,94478.13
2023-02-27T12:30:14.994Z,94476.13
2023-02-27T12:33:13.116Z,94472.91
2023-02-27T12:35:43.186Z,94478.69
2023-02-27T12:38:14.896Z,94473.56
2023-02-27T12:41:04.084Z,94481.59
2023-02-27T12:43:53.288Z,94478.69
2023-02-27T12:46:48.287Z,94461.81
2023-02-27T12:49:20.634Z,94490.88
2023-02-27T12:51:59.516Z,94468.94
2023-02-27T12:54:55.643Z,94490.25
2023-02-27T12:57:48.732Z,94471.59
2023-02-27T13:00:28.745Z,94469.44
2023-02-27T13:03:00.968Z,94481.88
2023-02-27T13:05:40.427Z,94484.19
2023-02-27T13:08:20.726Z,94473.22
2023-02-27T13:11:06.054Z,94481.91
2023-02-27T13:13:43.081Z,94506.28
2023-02-27T13:16:36.163Z,94486.84
2023-02-27T13:19:28.861Z,94496.38
2023-02-27T13:22:07.764Z,94488.56
2023-02-27T13:24:35.341Z,94473.22
2023-02-27T13:27:11.026Z,94499.13
2023-02-27T13:29:47.562Z,94478.19
2023-02-27T13:32:43.250Z,94481.16
2023-02-27T13:35:19.298Z,94474.88
2023-02-27T13:38:05.246Z,94475.44
2023-02-27T13:40:37.103Z,94473.97
2023-02-27T13:43:28.648Z,94467.50
2023-02-27T13:46:20.830Z,94476.66
2023-02-27T13:48:53.628Z,94481.03
2023-02-27T13:51:35.201Z,94485.09
2023-02-27T13:54:13.838Z,94469.66
2023-02-27T13:56:57.538Z,94485.38
2023-02-27T13:59:30.543Z,94482.88
2023-02-27T14:02:25.519Z,94480.59
2023-02-27T14:04:55.202Z,94477.47
2023-02-27T14:07:29.036Z,94483.47
2023-02-27T14:10:03.667Z,94474.00
2023-02-27T14:12:45.356Z,94479.41
2023-02-27T14:15:18.380Z,94482.06
2023-02-27T14:17:47.714Z,94490.13
2023-02-27T14:20:17.247Z,94482.88
2023-02-27T14:23:15.845Z,94482.84
2023-02-27T14:25:49.910Z,94489.66
2023-02-27T14:28:47.358Z,94493.50
2023-02-27T14:31:32.226Z,94494.56
2023-02-27T14:34:05.235Z,94514.41
2023-02-27T14:36:42.760Z,94496.72
2023-02-27T14:39:34.927Z,94495.47
2023-02-27T14:42:16.469Z,94484.97
2023-02-27T14:44:47.066Z,94493.50
2023-02-27T14:47:28.208Z,94499.97
2023-02-27T14:49:56.173Z,94493.19
2023-02-27T14:52:29.727Z,94504.31
2023-02-27T14:55:15.520Z,94508.25
2023-02-27T14:58:19.603Z,94505.09
2023-02-27T15:00:55.475Z,94507.31
2023-02-27T15:03:32.409Z,94497.81
2023-02-27T15:06:01.861Z,94499.53
2023-02-27T15:08:37.979Z,94507.44
2023-02-27T15:11:06.348Z,94513.31
2023-02-27T15:13:36.710Z,94513.63
2023-02-27T15:16:28.881Z,94516.47
2023-02-27T15:18:58.765Z,94507.50
2023-02-27T15:21:29.746Z,94512.53
2023-02-27T15:24:08.169Z,94512.53
2023-02-27T15:26:38.808Z,94509.69
2023-02-27T15:29:08.191Z,94514.41
2023-02-27T15:31:35.432Z,94517.28
2023-02-27T15:34:03.765Z,94513.94
2023-02-27T15:36:35.423Z,94516.00
2023-02-27T15:39:23.695Z,94517.41
2023-02-27T15:41:56.593Z,94527.88
2023-02-27T15:44:36.424Z,94521.38
2023-02-27T15:47:03.999Z,94521.72
2023-02-27T15:49:30.593Z,94526.78
2023-02-27T15:52:05.540Z,94527.09
2023-02-27T15:54:35.867Z,94530.72
2023-02-27T15:57:07.517Z,94535.78
2023-02-27T15:59:40.170Z,94538.47
2023-02-27T16:02:22.132Z,94530.72
2023-02-27T16:04:48.799Z,94535.00
2023-02-27T16:07:20.555Z,94533.75
2023-02-27T16:09:49.698Z,94543.19
2023-02-27T16:12:24.396Z,94538.94
2023-02-27T16:14:55.792Z,94553.50
2023-02-27T16:17:32.919Z,94553.47
2023-02-27T16:20:02.395Z,94554.72
2023-02-27T16:22:30.455Z,94548.56
2023-02-27T16:25:11.280Z,94555.06
2023-02-27T16:27:39.227Z,94550.78
2023-02-27T16:30:12.072Z,94560.44
2023-02-27T16:32:46.065Z,94554.91
2023-02-27T16:35:21.505Z,94573.69
2023-02-27T16:37:49.363Z,94565.66
2023-02-27T16:40:26.179Z,94569.75
2023-02-27T16:42:53.665Z,94565.16
2023-02-27T16:45:22.867Z,94568.97
2023-02-27T16:47:51.693Z,94574.34
2023-02-27T16:50:56.816Z,94571.81
2023-02-27T16:53:23.358Z,94586.03
2023-02-27T16:55:50.201Z,94586.50
2023-02-27T16:58:17.034Z,94585.72
2023-02-27T17:00:43.873Z,94590.63
2023-02-27T17:03:10.611Z,94592.94
2023-02-27T17:05:37.182Z,94596.28
2023-02-27T17:08:03.788Z,94606.88
2023-02-27T17:10:30.322Z,94612.41
2023-02-27T17:12:56.908Z,94611.28
2023-02-27T17:15:23.490Z,94620.63
2023-02-27T17:17:50.148Z,94614.94
2023-02-27T17:20:16.909Z,94620.91
2023-02-27T17:22:44.840Z,94622.50
2023-02-27T17:25:12.987Z,94640.94
2023-02-27T17:27:41.409Z,94634.00
2023-02-27T17:30:09.019Z,94644.78
2023-02-27T17:32:35.547Z,94638.28
2023-02-27T17:35:02.114Z,94626.78
2023-02-27T17:37:28.755Z,94630.44
2023-02-27T17:39:55.471Z,94645.75
2023-02-27T17:42:25.529Z,94639.44
2023-02-27T17:44:52.184Z,94650.59
2023-02-27T17:47:18.848Z,94647.97
2023-02-27T17:49:45.413Z,94666.69
2023-02-27T17:52:12.456Z,94652.91
2023-02-27T17:54:39.387Z,94665.41
2023-02-27T17:57:06.790Z,94655.22
2023-02-27T17:59:33.798Z,94663.13
2023-02-27T18:02:00.439Z,94667.84
2023-02-27T18:04:27.273Z,94667.06
2023-02-27T18:06:54.099Z,94665.97
2023-02-27T18:09:20.791Z,94664.38
2023-02-27T18:11:47.324Z,94677.22
2023-02-27T18:14:13.937Z,94680.09
2023-02-27T18:16:41.425Z,94682.28
2023-02-27T18:19:08.596Z,94677.22
2023-02-27T18:21:35.653Z,94670.22
2023-02-27T18:24:02.542Z,94681.28
2023-02-27T18:26:32.104Z,94673.59
2023-02-27T18:29:04.577Z,94677.22
2023-02-27T18:31:37.461Z,94705.47
2023-02-27T18:34:04.450Z,94677.41
2023-02-27T18:36:32.241Z,94681.94
2023-02-27T18:38:59.562Z,94677.75
2023-02-27T18:41:26.974Z,94680.59
2023-02-27T18:43:53.623Z,94688.34
2023-02-27T18:46:20.534Z,94668.59
2023-02-27T18:48:47.349Z,94667.59
2023-02-27T18:51:15.454Z,94677.66
2023-02-27T18:53:44.246Z,94674.91
2023-02-27T18:56:12.904Z,94669.25
2023-02-27T18:58:39.705Z,94662.91
2023-02-27T19:01:07.466Z,94674.06
2023-02-27T19:03:35.633Z,94679.69
2023-02-27T19:06:02.393Z,94684.19
2023-02-27T19:08:29.535Z,94685.59
2023-02-27T19:10:57.365Z,94677.56
2023-02-27T19:13:24.917Z,94676.81
2023-02-27T19:15:52.446Z,94680.78
2023-02-27T19:18:19.312Z,94678.88
2023-02-27T19:20:45.942Z,94679.19
2023-02-27T19:23:12.526Z,94670.47
2023-02-27T19:25:39.294Z,94672.72
2023-02-27T19:28:06.428Z,94684.75
2023-02-27T19:30:33.180Z,94674.59
2023-02-27T19:32:59.826Z,94681.34
2023-02-27T19:35:26.450Z,94683.47
2023-02-27T19:37:58.162Z,94672.91
2023-02-27T19:40:25.249Z,94678.78
2023-02-27T19:42:52.173Z,94661.38
2023-02-27T19:45:18.760Z,94677.56
2023-02-27T19:47:46.690Z,94675.34
2023-02-27T19:50:13.482Z,94674.06
2023-02-27T19:52:40.323Z,94665.56
2023-02-27T19:55:07.833Z,94663.66
2023-02-27T19:57:37.701Z,94661.34
2023-02-27T20:00:06.899Z,94672.00
2023-02-27T20:02:40.414Z,94670.47
2023-02-27T20:05:07.616Z,94678.81
2023-02-27T20:07:34.235Z,94663.28
2023-02-27T20:10:00.805Z,94676.75
2023-02-27T20:12:27.439Z,94692.84
2023-02-27T20:14:54.077Z,94679.00
2023-02-27T20:17:20.660Z,94681.16
2023-02-27T20:19:47.181Z,94683.38
2023-02-27T20:22:15.544Z,94670.34
2023-02-27T20:24:44.729Z,94673.09
2023-02-27T20:27:12.749Z,94673.41
2023-02-27T20:29:40.463Z,94683.38
2023-02-27T20:32:08.959Z,94685.25
2023-02-27T20:34:35.602Z,94687.53
2023-02-27T20:37:03.108Z,94668.88
2023-02-27T20:39:29.779Z,94680.66
2023-02-27T20:41:56.390Z,94673.09
2023-02-27T20:44:22.951Z,94664.97
2023-02-27T20:46:49.805Z,94666.38
2023-02-27T20:49:16.856Z,94654.16
2023-02-27T20:51:44.017Z,94660.44
2023-02-27T20:54:19.927Z,94663.50
2023-02-27T20:56:48.188Z,94655.09
2023-02-27T20:59:16.721Z,94656.00
2023-02-27T21:01:51.171Z,94651.44
2023-02-27T21:04:20.143Z,94653.63
2023-02-27T21:06:46.770Z,94632.69
2023-02-27T21:09:13.382Z,94659.59
2023-02-27T21:11:40.029Z,94645.16
2023-02-27T21:14:10.496Z,94642.88
2023-02-27T21:16:39.395Z,94651.53
2023-02-27T21:19:07.279Z,94641.72
2023-02-27T21:21:34.760Z,94639.16
2023-02-27T21:24:01.918Z,94636.09
2023-02-27T21:26:38.988Z,94641.16
2023-02-27T21:29:07.616Z,94633.41
2023-02-27T21:31:35.622Z,94640.97
2023-02-27T21:34:05.427Z,94644.63
2023-02-27T21:36:35.316Z,94644.03
2023-02-27T21:39:04.918Z,94643.84
2023-02-27T21:41:31.902Z,94639.97
2023-02-27T21:44:02.179Z,94645.22
2023-02-27T21:46:29.063Z,94643.34
2023-02-27T21:48:58.066Z,94656.31
2023-02-27T21:51:38.839Z,94649.47
2023-02-27T21:54:06.690Z,94643.25
2023-02-27T21:56:33.271Z,94645.22
2023-02-27T21:59:01.719Z,94634.31
2023-02-27T22:01:29.091Z,94628.97
2023-02-27T22:03:56.727Z,94622.44
2023-02-27T22:06:28.441Z,94614.28
2023-02-27T22:08:56.046Z,94632.44
2023-02-27T22:11:24.104Z,94631.03
2023-02-27T22:13:51.006Z,94623.78
2023-02-27T22:16:19.515Z,94636.38
2023-02-27T22:18:46.429Z,94623.19
2023-02-27T22:21:17.122Z,94624.09
2023-02-27T22:23:45.757Z,94618.16
2023-02-27T22:26:18.720Z,94625.41
2023-02-27T22:28:45.350Z,94627.00
2023-02-27T22:31:23.483Z,94620.25
2023-02-27T22:33:52.495Z,94617.84
2023-02-27T22:36:21.934Z,94621.41
2023-02-27T22:38:49.455Z,94620.25
2023-02-27T22:41:19.279Z,94627.16
2023-02-27T22:43:46.415Z,94623.41
2023-02-27T22:46:16.426Z,94612.31
2023-02-27T22:48:44.042Z,94609.03
2023-02-27T22:51:14.295Z,94616.69
2023-02-27T22:53:46.015Z,94620.34
2023-02-27T22:56:13.703Z,94615.69
2023-02-27T22:58:41.484Z,94621.03
2023-02-27T23:01:10.343Z,94619.63
2023-02-27T23:03:37.558Z,94616.50
2023-02-27T23:06:06.046Z,94617.66
2023-02-27T23:08:34.851Z,94619.75
2023-02-27T23:11:01.460Z,94612.50
2023-02-27T23:13:28.087Z,94610.81
2023-02-27T23:15:54.784Z,94607.16
2023-02-27T23:18:21.393Z,94614.00
2023-02-27T23:20:47.912Z,94610.81
2023-02-27T23:23:14.485Z,94609.53
2023-02-27T23:25:41.413Z,94601.63
2023-02-27T23:28:08.177Z,94612.91
2023-02-27T23:30:34.830Z,94609.84
2023-02-27T23:33:01.462Z,94611.22
2023-02-27T23:35:29.020Z,94610.25
2023-02-27T23:37:57.904Z,94601.88
2023-02-27T23:40:26.797Z,94606.75
2023-02-27T23:42:53.965Z,94609.81
2023-02-27T23:45:23.156Z,94602.59
2023-02-27T23:47:55.406Z,94607.66
2023-02-27T23:50:25.270Z,94604.38
2023-02-27T23:52:53.537Z,94598.84
2023-02-27T23:55:21.343Z,94599.91
2023-02-27T23:57:51.155Z,94596.34
